Time;durP1;ratioP1;P1;durP2;ratioP2;P2;SDS_P1;SDS_P2;PMS_P1;PMS_P2;Temp;Humidity;BMP_temperature;BMP_pressure;BME280_temperature;BME280_humidity;BME280_pressure;Samples;Min_cycle;Max_cycle;Signal;HPM_P1;HPM_P2
2023/06/24 00:00:28;;;;;;;;;;;21.20;78.00;;;;;;5110672;28;19908;-71
2023/06/24 00:02:53;;;;;;;;;;;21.20;78.20;;;;;;5109019;28;20478;-70
2023/06/24 00:05:19;;;;;;;;;;;21.20;78.10;;;;;;5108199;28;19918;-71
2023/06/24 00:07:45;;;;;;;;;;;21.20;78.10;;;;;;5090424;28;19912;-71
2023/06/24 00:10:12;;;;;;;;;;;21.10;78.10;;;;;;5090042;28;19920;-71
2023/06/24 00:12:38;;;;;;;;;;;21.10;77.90;;;;;;5097387;28;20002;-71
2023/06/24 00:15:05;;;;;;;;;;;21.10;78.30;;;;;;5110397;28;19919;-71
2023/06/24 00:17:30;;;;;;;;;;;21.10;78.20;;;;;;5110008;27;19998;-71
2023/06/24 00:19:56;;;;;;;;;;;21.00;78.00;;;;;;5110432;28;20049;-71
2023/06/24 00:22:22;;;;;;;;;;;21.00;78.50;;;;;;5110202;28;19916;-71
2023/06/24 00:24:47;;;;;;;;;;;21.00;78.30;;;;;;5110365;28;19915;-71
2023/06/24 00:27:13;;;;;;;;;;;21.00;78.40;;;;;;5109703;28;19915;-71
2023/06/24 00:29:38;;;;;;;;;;;20.90;78.60;;;;;;5110313;28;19944;-71
2023/06/24 00:32:04;;;;;;;;;;;20.90;78.70;;;;;;5109967;28;19919;-71
2023/06/24 00:34:30;;;;;;;;;;;20.90;78.70;;;;;;5109902;28;19914;-71
2023/06/24 00:36:55;;;;;;;;;;;20.80;78.70;;;;;;5108401;28;20065;-71
2023/06/24 00:39:21;;;;;;;;;;;20.80;78.80;;;;;;5110267;28;19911;-71
2023/06/24 00:41:46;;;;;;;;;;;20.80;78.90;;;;;;5109503;28;20265;-70
2023/06/24 00:44:12;;;;;;;;;;;20.80;78.70;;;;;;5108019;28;20368;-71
2023/06/24 00:46:39;;;;;;;;;;;20.80;79.00;;;;;;5109315;28;19922;-71
2023/06/24 00:49:05;;;;;;;;;;;20.80;79.00;;;;;;5109726;28;19919;-71
2023/06/24 00:51:32;;;;;;;;;;;20.70;79.00;;;;;;5109994;28;19916;-71
2023/06/24 00:53:57;;;;;;;;;;;20.70;79.10;;;;;;5107056;28;19977;-71
2023/06/24 00:56:28;;;;;;;;;;;20.70;79.60;;;;;;5099455;28;19955;-71
2023/06/24 00:58:54;;;;;;;;;;;20.60;79.10;;;;;;5098757;28;20053;-71
2023/06/24 01:01:20;;;;;;;;;;;20.70;79.40;;;;;;5108960;28;20390;-72
2023/06/24 01:03:46;;;;;;;;;;;20.60;79.30;;;;;;5104549;28;20007;-71
2023/06/24 01:06:13;;;;;;;;;;;20.60;79.60;;;;;;5105201;28;19997;-71
2023/06/24 01:08:38;;;;;;;;;;;20.60;79.50;;;;;;5103664;28;19912;-71
2023/06/24 01:11:04;;;;;;;;;;;20.60;79.50;;;;;;5088874;28;19912;-71
2023/06/24 01:13:30;;;;;;;;;;;20.50;79.50;;;;;;5101102;28;19907;-71
2023/06/24 01:15:57;;;;;;;;;;;20.50;80.20;;;;;;5104051;28;19908;-71
2023/06/24 01:18:22;;;;;;;;;;;20.50;79.50;;;;;;5089215;28;19916;-70
2023/06/24 01:21:07;;;;;;;;;;;20.40;79.80;;;;;;5093467;28;20377;-71
2023/06/24 01:23:32;;;;;;;;;;;20.40;80.00;;;;;;5109448;28;19927;-72
2023/06/24 01:26:07;;;;;;;;;;;20.40;80.00;;;;;;5108862;28;20276;-71
2023/06/24 01:28:51;;;;;;;;;;;20.40;80.10;;;;;;5107863;28;19919;-71
2023/06/24 01:31:17;;;;;;;;;;;20.30;80.10;;;;;;5109268;28;19919;-71
2023/06/24 01:33:49;;;;;;;;;;;20.30;80.20;;;;;;5109083;28;19912;-71
2023/06/24 01:36:16;;;;;;;;;;;20.30;80.30;;;;;;5107474;28;19912;-71
2023/06/24 01:39:11;;;;;;;;;;;20.30;80.20;;;;;;5109064;28;19912;-71
2023/06/24 01:41:44;;;;;;;;;;;20.20;80.40;;;;;;5099622;28;20568;-71
2023/06/24 01:44:12;;;;;;;;;;;20.20;80.40;;;;;;5108948;28;19912;-71
2023/06/24 01:46:40;;;;;;;;;;;20.20;80.10;;;;;;5108588;28;19916;-71
2023/06/24 01:49:07;;;;;;;;;;;20.20;80.40;;;;;;5109039;28;19912;-71
2023/06/24 01:51:34;;;;;;;;;;;20.20;80.60;;;;;;5109350;27;19918;-70
2023/06/24 01:54:02;;;;;;;;;;;20.10;80.60;;;;;;5097207;28;19915;-71
2023/06/24 01:56:28;;;;;;;;;;;20.10;80.60;;;;;;5088310;28;19918;-71
2023/06/24 01:58:56;;;;;;;;;;;20.10;80.60;;;;;;5088487;28;19908;-71
2023/06/24 02:01:22;;;;;;;;;;;20.10;80.90;;;;;;5088518;28;20024;-71
2023/06/24 02:03:48;;;;;;;;;;;20.10;80.90;;;;;;5104095;28;20376;-70
2023/06/24 02:06:14;;;;;;;;;;;20.10;80.60;;;;;;5110726;28;20038;-71
2023/06/24 02:08:40;;;;;;;;;;;20.00;80.80;;;;;;5113030;28;20350;-71
2023/06/24 02:11:07;;;;;;;;;;;20.00;80.60;;;;;;5112946;28;19918;-71
2023/06/24 02:13:35;;;;;;;;;;;20.00;80.90;;;;;;5113251;28;19954;-72
2023/06/24 02:16:02;;;;;;;;;;;20.00;81.10;;;;;;5112563;28;19912;-71
2023/06/24 02:18:28;;;;;;;;;;;19.90;81.00;;;;;;5113026;28;19908;-71
2023/06/24 02:20:55;;;;;;;;;;;19.90;81.10;;;;;;5113094;28;19911;-70
2023/06/24 02:23:21;;;;;;;;;;;19.90;81.20;;;;;;5111393;28;19966;-71
2023/06/24 02:25:47;;;;;;;;;;;19.90;81.10;;;;;;5112367;28;19966;-71
2023/06/24 02:28:14;;;;;;;;;;;19.90;81.30;;;;;;5111393;28;20013;-72
2023/06/24 02:30:40;;;;;;;;;;;19.90;81.50;;;;;;5112656;28;19912;-71
2023/06/24 02:33:06;;;;;;;;;;;19.80;81.50;;;;;;5112521;28;19911;-71
2023/06/24 02:35:32;;;;;;;;;;;19.80;81.30;;;;;;5112335;28;19911;-71
2023/06/24 02:37:57;;;;;;;;;;;19.80;81.60;;;;;;5112190;28;19908;-71
2023/06/24 02:40:23;;;;;;;;;;;19.80;81.60;;;;;;5112300;28;19918;-71
2023/06/24 02:42:48;;;;;;;;;;;19.80;81.90;;;;;;5112220;28;19916;-71
2023/06/24 02:45:14;;;;;;;;;;;19.80;81.80;;;;;;5094667;28;20296;-71
2023/06/24 02:47:41;;;;;;;;;;;19.70;81.70;;;;;;5091748;28;19951;-71
2023/06/24 02:50:08;;;;;;;;;;;19.70;81.80;;;;;;5093585;28;19989;-71
2023/06/24 02:52:36;;;;;;;;;;;19.70;81.80;;;;;;5111974;28;19911;-71
2023/06/24 02:55:02;;;;;;;;;;;19.70;81.80;;;;;;5111843;28;19912;-71
2023/06/24 02:57:28;;;;;;;;;;;19.70;82.00;;;;;;5111699;28;20382;-70
2023/06/24 02:59:53;;;;;;;;;;;19.60;81.80;;;;;;5111521;28;19919;-71
2023/06/24 03:02:19;;;;;;;;;;;19.60;82.00;;;;;;5112193;28;19968;-72
2023/06/24 03:04:45;;;;;;;;;;;19.60;82.10;;;;;;5111615;28;19946;-72
2023/06/24 03:07:11;;;;;;;;;;;19.60;82.10;;;;;;5111535;28;19969;-71
2023/06/24 03:09:36;;;;;;;;;;;19.60;82.20;;;;;;5111574;28;20599;-71
2023/06/24 03:12:02;;;;;;;;;;;19.50;82.30;;;;;;5111464;28;19919;-71
2023/06/24 03:14:28;;;;;;;;;;;19.50;82.20;;;;;;5111211;28;19915;-71
2023/06/24 03:16:53;;;;;;;;;;;19.50;82.40;;;;;;5111101;28;19937;-70
2023/06/24 03:19:19;;;;;;;;;;;19.50;82.40;;;;;;5110110;28;20303;-72
2023/06/24 03:21:44;;;;;;;;;;;19.50;82.40;;;;;;5111210;27;19907;-71
2023/06/24 03:24:10;;;;;;;;;;;19.40;82.50;;;;;;5111333;28;19980;-71
2023/06/24 03:26:37;;;;;;;;;;;19.50;82.40;;;;;;5110528;28;19926;-71
2023/06/24 03:29:03;;;;;;;;;;;19.50;82.50;;;;;;5111207;28;20023;-71
2023/06/24 03:31:28;;;;;;;;;;;19.40;82.50;;;;;;5111548;28;19940;-70
2023/06/24 03:33:54;;;;;;;;;;;19.40;82.60;;;;;;5111217;28;20040;-70
2023/06/24 03:36:20;;;;;;;;;;;19.40;82.80;;;;;;5111169;28;19998;-70
2023/06/24 03:38:45;;;;;;;;;;;19.40;82.80;;;;;;5111209;28;19907;-70
2023/06/24 03:41:11;;;;;;;;;;;19.40;82.70;;;;;;5111478;28;19912;-70
2023/06/24 03:43:37;;;;;;;;;;;19.40;82.90;;;;;;5113881;27;19918;-70
2023/06/24 03:46:02;;;;;;;;;;;19.30;83.00;;;;;;5131531;27;19922;-71
2023/06/24 03:48:28;;;;;;;;;;;19.40;83.10;;;;;;5131685;27;19908;-70
2023/06/24 03:50:53;;;;;;;;;;;19.30;83.10;;;;;;5111833;27;19911;-70
2023/06/24 03:53:19;;;;;;;;;;;19.30;82.90;;;;;;5111002;28;19919;-70
2023/06/24 03:55:44;;;;;;;;;;;19.30;83.00;;;;;;5110896;28;19911;-70
2023/06/24 03:58:10;;;;;;;;;;;19.30;83.00;;;;;;5111046;28;19911;-71
2023/06/24 04:00:40;;;;;;;;;;;19.30;83.00;;;;;;5110795;28;19919;-70
2023/06/24 04:03:07;;;;;;;;;;;19.30;83.10;;;;;;5109430;28;19915;-70
2023/06/24 04:05:33;;;;;;;;;;;19.30;83.00;;;;;;5110498;28;20047;-70
2023/06/24 04:07:58;;;;;;;;;;;19.30;83.10;;;;;;5109395;28;20045;-71
2023/06/24 04:10:24;;;;;;;;;;;19.30;83.10;;;;;;5109306;28;19947;-70
2023/06/24 04:12:49;;;;;;;;;;;19.30;83.10;;;;;;5110693;28;19911;-70
2023/06/24 04:15:15;;;;;;;;;;;19.40;83.20;;;;;;5110418;28;20283;-70
2023/06/24 04:17:40;;;;;;;;;;;19.30;83.20;;;;;;5110588;28;19919;-71
2023/06/24 04:20:08;;;;;;;;;;;19.40;83.30;;;;;;5110503;28;20386;-70
2023/06/24 04:22:34;;;;;;;;;;;19.40;83.20;;;;;;5110415;28;20025;-70
2023/06/24 04:25:00;;;;;;;;;;;19.40;83.30;;;;;;5110207;28;19907;-70
2023/06/24 04:27:25;;;;;;;;;;;19.40;83.20;;;;;;5109995;28;20450;-71
2023/06/24 04:29:51;;;;;;;;;;;19.40;83.30;;;;;;5109751;28;20386;-70
2023/06/24 04:32:16;;;;;;;;;;;19.40;83.30;;;;;;5110274;28;19918;-70
2023/06/24 04:34:42;;;;;;;;;;;19.40;83.40;;;;;;5110121;27;19912;-70
2023/06/24 04:37:07;;;;;;;;;;;19.40;83.30;;;;;;5109979;28;19912;-70
2023/06/24 04:39:33;;;;;;;;;;;19.40;83.40;;;;;;5109780;28;19911;-70
2023/06/24 04:41:58;;;;;;;;;;;19.40;83.30;;;;;;5109871;27;19923;-71
2023/06/24 04:44:24;;;;;;;;;;;19.40;83.40;;;;;;5109861;28;19912;-70
2023/06/24 04:46:51;;;;;;;;;;;19.40;83.50;;;;;;5108527;28;20015;-71
2023/06/24 04:49:17;;;;;;;;;;;19.40;83.50;;;;;;5109062;28;20287;-70
2023/06/24 04:51:43;;;;;;;;;;;19.40;83.50;;;;;;5105045;28;19908;-70
2023/06/24 04:54:08;;;;;;;;;;;19.50;83.50;;;;;;5109535;28;20787;-70
2023/06/24 04:56:34;;;;;;;;;;;19.50;83.60;;;;;;5109596;27;20400;-70
2023/06/24 04:59:00;;;;;;;;;;;19.50;83.70;;;;;;5108203;28;19908;-70
2023/06/24 05:01:25;;;;;;;;;;;19.50;83.80;;;;;;5109608;28;19916;-71
2023/06/24 05:03:51;;;;;;;;;;;19.50;83.70;;;;;;5107722;28;20077;-71
2023/06/24 05:06:16;;;;;;;;;;;19.50;83.70;;;;;;5109360;28;19916;-70
2023/06/24 05:08:42;;;;;;;;;;;19.50;83.80;;;;;;5109697;28;19912;-71
2023/06/24 05:11:07;;;;;;;;;;;19.50;83.80;;;;;;5109313;28;20376;-71
2023/06/24 05:13:33;;;;;;;;;;;19.50;83.80;;;;;;5109032;28;19912;-71
2023/06/24 05:15:58;;;;;;;;;;;19.60;83.90;;;;;;5109487;28;19976;-70
2023/06/24 05:18:24;;;;;;;;;;;19.60;83.90;;;;;;5108093;28;19990;-71
2023/06/24 05:20:49;;;;;;;;;;;19.60;83.90;;;;;;5108911;28;20299;-71
2023/06/24 05:23:15;;;;;;;;;;;19.60;83.90;;;;;;5109181;28;19966;-71
2023/06/24 05:25:40;;;;;;;;;;;19.60;83.90;;;;;;5109150;28;19935;-71
2023/06/24 05:28:06;;;;;;;;;;;19.70;84.00;;;;;;5109294;28;19949;-70
2023/06/24 05:30:32;;;;;;;;;;;19.70;83.90;;;;;;5109332;28;19911;-70
2023/06/24 05:32:57;;;;;;;;;;;19.70;84.00;;;;;;5107702;28;20344;-71
2023/06/24 05:35:23;;;;;;;;;;;19.70;83.90;;;;;;5107271;28;19925;-70
2023/06/24 05:37:48;;;;;;;;;;;19.70;83.90;;;;;;5110244;27;19916;-71
2023/06/24 05:40:14;;;;;;;;;;;19.70;83.90;;;;;;5126900;27;19915;-71
2023/06/24 05:42:39;;;;;;;;;;;19.70;83.90;;;;;;5122151;27;20459;-70
2023/06/24 05:45:06;;;;;;;;;;;19.80;83.90;;;;;;5108893;28;19919;-71
2023/06/24 05:47:32;;;;;;;;;;;19.80;83.90;;;;;;5108601;28;19911;-71
2023/06/24 05:49:58;;;;;;;;;;;19.80;83.80;;;;;;5108319;28;19918;-71
2023/06/24 05:52:24;;;;;;;;;;;19.80;83.70;;;;;;5108643;28;20296;-70
2023/06/24 05:54:49;;;;;;;;;;;19.90;84.40;;;;;;5108965;28;19912;-70
2023/06/24 05:57:15;;;;;;;;;;;19.90;83.70;;;;;;5108956;28;20588;-71
2023/06/24 05:59:40;;;;;;;;;;;19.90;83.50;;;;;;5109031;28;20538;-70
2023/06/24 06:02:06;;;;;;;;;;;19.90;83.50;;;;;;5108902;28;19912;-71
2023/06/24 06:04:31;;;;;;;;;;;20.00;83.30;;;;;;5108738;28;19919;-71
2023/06/24 06:06:57;;;;;;;;;;;20.00;83.30;;;;;;5108537;28;19916;-70
2023/06/24 06:09:22;;;;;;;;;;;20.00;83.30;;;;;;5108698;28;20279;-71
2023/06/24 06:11:48;;;;;;;;;;;20.10;83.20;;;;;;5107474;28;19961;-71
2023/06/24 06:14:14;;;;;;;;;;;20.10;83.10;;;;;;5108965;28;19912;-71
2023/06/24 06:16:39;;;;;;;;;;;20.10;83.10;;;;;;5108345;28;19908;-70
2023/06/24 06:19:05;;;;;;;;;;;20.10;83.20;;;;;;5107370;28;20463;-71
2023/06/24 06:21:31;;;;;;;;;;;20.10;83.20;;;;;;5108781;28;20412;-71
2023/06/24 06:23:56;;;;;;;;;;;20.10;83.20;;;;;;5108327;28;20014;-70
2023/06/24 06:26:22;;;;;;;;;;;20.10;83.20;;;;;;5108449;28;20019;-70
2023/06/24 06:28:47;;;;;;;;;;;20.10;83.20;;;;;;5108701;28;20014;-71
2023/06/24 06:31:13;;;;;;;;;;;20.10;83.10;;;;;;5108606;28;19916;-71
2023/06/24 06:33:39;;;;;;;;;;;20.10;83.10;;;;;;5107124;28;19998;-71
2023/06/24 06:36:04;;;;;;;;;;;20.20;83.00;;;;;;5108252;28;19947;-71
2023/06/24 06:38:30;;;;;;;;;;;20.20;82.80;;;;;;5108527;28;19954;-71
2023/06/24 06:40:55;;;;;;;;;;;20.30;82.90;;;;;;5108482;28;19908;-71
2023/06/24 06:43:21;;;;;;;;;;;20.30;82.80;;;;;;5108549;28;19949;-71
2023/06/24 06:45:47;;;;;;;;;;;20.40;82.70;;;;;;5108293;28;19947;-70
2023/06/24 06:48:12;;;;;;;;;;;20.40;82.70;;;;;;5108613;28;19912;-70
2023/06/24 06:50:38;;;;;;;;;;;20.40;82.50;;;;;;5108336;28;20595;-70
2023/06/24 06:53:03;;;;;;;;;;;20.40;82.50;;;;;;5111473;28;20399;-71
2023/06/24 06:55:29;;;;;;;;;;;20.40;82.40;;;;;;5112028;28;20016;-71
2023/06/24 06:57:55;;;;;;;;;;;20.50;82.30;;;;;;5110743;28;19954;-71
2023/06/24 07:00:20;;;;;;;;;;;20.60;82.30;;;;;;5110920;28;19933;-71
2023/06/24 07:02:46;;;;;;;;;;;20.60;82.10;;;;;;5111887;28;19940;-70
2023/06/24 07:05:11;;;;;;;;;;;20.60;82.00;;;;;;5110483;28;19923;-70
2023/06/24 07:07:38;;;;;;;;;;;20.60;82.20;;;;;;5110391;28;19916;-70
2023/06/24 07:10:04;;;;;;;;;;;20.70;82.10;;;;;;5111894;28;19919;-70
2023/06/24 07:12:29;;;;;;;;;;;20.70;81.80;;;;;;5106865;28;19916;-71
2023/06/24 07:14:55;;;;;;;;;;;20.70;82.00;;;;;;5106229;28;19908;-70
2023/06/24 07:17:20;;;;;;;;;;;20.70;81.80;;;;;;5111592;28;19943;-71
2023/06/24 07:19:46;;;;;;;;;;;20.70;81.80;;;;;;5111643;28;19907;-71
2023/06/24 07:22:11;;;;;;;;;;;20.70;81.80;;;;;;5111642;28;19916;-71
2023/06/24 07:24:37;;;;;;;;;;;20.70;81.80;;;;;;5111591;28;19915;-71
2023/06/24 07:27:02;;;;;;;;;;;20.70;81.80;;;;;;5111608;28;19915;-71
2023/06/24 07:29:28;;;;;;;;;;;20.80;81.70;;;;;;5110018;28;20345;-70
2023/06/24 07:31:53;;;;;;;;;;;20.80;81.70;;;;;;5111566;28;19908;-71
2023/06/24 07:34:19;;;;;;;;;;;20.80;81.60;;;;;;5111370;28;20362;-71
2023/06/24 07:36:44;;;;;;;;;;;20.80;81.50;;;;;;5111341;28;19918;-71
2023/06/24 07:39:10;;;;;;;;;;;20.80;81.60;;;;;;5109920;28;19916;-71
2023/06/24 07:41:35;;;;;;;;;;;20.90;81.60;;;;;;5111385;28;19957;-71
2023/06/24 07:44:01;;;;;;;;;;;20.90;81.40;;;;;;5118404;27;19911;-71
2023/06/24 07:46:27;;;;;;;;;;;20.90;81.50;;;;;;5116324;27;19998;-70
2023/06/24 07:48:53;;;;;;;;;;;20.90;81.30;;;;;;5109652;28;19912;-71
2023/06/24 07:51:18;;;;;;;;;;;21.00;81.60;;;;;;5105578;28;19955;-71
2023/06/24 07:53:44;;;;;;;;;;;21.00;81.30;;;;;;5110958;28;20363;-71
2023/06/24 07:56:09;;;;;;;;;;;21.10;81.10;;;;;;5110808;28;19916;-71
2023/06/24 07:58:36;;;;;;;;;;;21.10;81.00;;;;;;5110967;28;19912;-70
2023/06/24 08:01:02;;;;;;;;;;;21.10;81.10;;;;;;5110849;27;20261;-71
2023/06/24 08:03:28;;;;;;;;;;;21.10;81.00;;;;;;5110009;28;19908;-71
2023/06/24 08:05:53;;;;;;;;;;;21.10;81.30;;;;;;5110543;28;19928;-71
2023/06/24 08:08:20;;;;;;;;;;;21.20;81.40;;;;;;5110818;28;19964;-71
2023/06/24 08:10:46;;;;;;;;;;;21.30;81.00;;;;;;5110716;28;19943;-71
2023/06/24 08:13:11;;;;;;;;;;;21.30;80.90;;;;;;5110587;28;19952;-72
2023/06/24 08:15:37;;;;;;;;;;;21.30;81.10;;;;;;5108982;28;20658;-71
2023/06/24 08:18:02;;;;;;;;;;;21.40;80.70;;;;;;5109349;28;19911;-71
2023/06/24 08:20:28;;;;;;;;;;;21.40;80.70;;;;;;5110834;28;19911;-71
2023/06/24 08:22:53;;;;;;;;;;;21.40;80.60;;;;;;5110585;28;19926;-71
2023/06/24 08:25:19;;;;;;;;;;;21.50;80.90;;;;;;5110359;28;20378;-70
2023/06/24 08:27:46;;;;;;;;;;;21.50;81.00;;;;;;5109947;28;20318;-71
2023/06/24 08:30:12;;;;;;;;;;;21.50;80.70;;;;;;5109941;28;20332;-70
2023/06/24 08:32:38;;;;;;;;;;;21.50;80.50;;;;;;5110244;27;20479;-71
2023/06/24 08:35:04;;;;;;;;;;;21.50;80.90;;;;;;5109439;28;19912;-71
2023/06/24 08:37:29;;;;;;;;;;;21.60;80.60;;;;;;5109860;28;20461;-72
2023/06/24 08:39:55;;;;;;;;;;;21.60;80.40;;;;;;5110017;28;19912;-71
2023/06/24 08:42:20;;;;;;;;;;;21.60;80.70;;;;;;5109974;28;19952;-71
2023/06/24 08:44:46;;;;;;;;;;;21.60;81.00;;;;;;5110080;28;19908;-71
2023/06/24 08:47:11;;;;;;;;;;;21.70;80.90;;;;;;5109715;28;20539;-72
2023/06/24 08:49:42;;;;;;;;;;;21.70;80.70;;;;;;5109631;28;19918;-71
2023/06/24 08:52:12;;;;;;;;;;;21.70;80.50;;;;;;5109657;28;19918;-71
2023/06/24 08:54:39;;;;;;;;;;;21.70;80.20;;;;;;5109718;28;19912;-71
2023/06/24 08:57:08;;;;;;;;;;;21.80;80.40;;;;;;5109824;28;19912;-71
2023/06/24 08:59:34;;;;;;;;;;;21.80;80.10;;;;;;5109952;28;19908;-71
2023/06/24 09:01:59;;;;;;;;;;;21.80;80.20;;;;;;5108462;28;19925;-71
2023/06/24 09:04:25;;;;;;;;;;;21.90;80.00;;;;;;5109394;28;19946;-71
2023/06/24 09:06:50;;;;;;;;;;;21.90;79.90;;;;;;5109417;28;19912;-71
2023/06/24 09:09:19;;;;;;;;;;;21.90;80.10;;;;;;5109231;28;19934;-71
2023/06/24 09:11:51;;;;;;;;;;;22.00;80.00;;;;;;5109646;28;19912;-71
2023/06/24 09:14:16;;;;;;;;;;;22.00;79.70;;;;;;5089075;28;19931;-71
2023/06/24 09:16:51;;;;;;;;;;;22.00;79.60;;;;;;5089028;28;20607;-71
2023/06/24 09:19:21;;;;;;;;;;;22.00;79.60;;;;;;5089191;28;19912;-71
2023/06/24 09:21:46;;;;;;;;;;;22.10;79.50;;;;;;5089235;28;19908;-71
2023/06/24 09:24:12;;;;;;;;;;;22.10;79.40;;;;;;5107959;27;19930;-71
2023/06/24 09:26:37;;;;;;;;;;;22.10;79.30;;;;;;5128087;27;19916;-71
2023/06/24 09:29:03;;;;;;;;;;;22.20;79.40;;;;;;5129656;27;19914;-71
2023/06/24 09:31:29;;;;;;;;;;;22.20;79.20;;;;;;5129705;27;19916;-71
2023/06/24 09:33:58;;;;;;;;;;;22.20;79.10;;;;;;5111457;27;19947;-71
2023/06/24 09:36:23;;;;;;;;;;;22.30;79.10;;;;;;5109042;28;20386;-71
2023/06/24 09:38:49;;;;;;;;;;;22.30;78.80;;;;;;5109170;28;19919;-71
2023/06/24 09:41:15;;;;;;;;;;;22.30;78.90;;;;;;5109079;28;20371;-70
2023/06/24 09:43:42;;;;;;;;;;;22.30;78.80;;;;;;5109076;28;19912;-71
2023/06/24 09:46:08;;;;;;;;;;;22.40;79.30;;;;;;5108432;28;19919;-71
2023/06/24 09:48:33;;;;;;;;;;;22.40;78.70;;;;;;5109115;28;19915;-70
2023/06/24 09:51:01;;;;;;;;;;;22.50;78.60;;;;;;5107011;28;19916;-71
2023/06/24 09:53:29;;;;;;;;;;;22.50;78.50;;;;;;5109367;27;20275;-71
2023/06/24 09:55:56;;;;;;;;;;;22.60;78.40;;;;;;5126959;27;20260;-71
2023/06/24 09:58:21;;;;;;;;;;;22.60;78.30;;;;;;5129584;27;19952;-71
2023/06/24 10:00:47;;;;;;;;;;;22.70;78.10;;;;;;5129449;27;20582;-71
2023/06/24 10:03:13;;;;;;;;;;;22.80;77.90;;;;;;5107586;27;19909;-71
2023/06/24 10:05:39;;;;;;;;;;;22.80;78.10;;;;;;5099937;28;19955;-71
2023/06/24 10:08:05;;;;;;;;;;;22.80;77.70;;;;;;5107402;28;19930;-71
2023/06/24 10:10:31;;;;;;;;;;;22.90;77.80;;;;;;5108848;28;19953;-71
2023/06/24 10:12:57;;;;;;;;;;;22.90;77.60;;;;;;5108823;28;19974;-71
2023/06/24 10:15:22;;;;;;;;;;;23.00;77.60;;;;;;5107319;28;19920;-71
2023/06/24 10:17:48;;;;;;;;;;;23.10;77.70;;;;;;5107356;28;20292;-71
2023/06/24 10:20:23;;;;;;;;;;;23.10;77.50;;;;;;5108771;28;19964;-72
2023/06/24 10:22:50;;;;;;;;;;;23.10;77.50;;;;;;5108629;28;19920;-71
2023/06/24 10:25:16;;;;;;;;;;;23.20;77.60;;;;;;5108524;28;19916;-71
2023/06/24 10:27:42;;;;;;;;;;;23.30;77.60;;;;;;5111769;28;19915;-71
2023/06/24 10:30:08;;;;;;;;;;;23.30;77.50;;;;;;5112757;28;19977;-72
2023/06/24 10:32:43;;;;;;;;;;;23.40;77.40;;;;;;5111710;28;20654;-71
2023/06/24 10:35:30;;;;;;;;;;;23.40;77.30;;;;;;5112762;27;20388;-72
2023/06/24 10:37:56;;;;;;;;;;;23.50;77.50;;;;;;5112409;28;19908;-72
2023/06/24 10:40:42;;;;;;;;;;;23.50;77.60;;;;;;5112717;27;19908;-72
2023/06/24 10:43:25;;;;;;;;;;;23.60;77.50;;;;;;5112553;28;20534;-72
2023/06/24 10:45:54;;;;;;;;;;;23.70;77.40;;;;;;5112172;28;19911;-72
2023/06/24 10:48:20;;;;;;;;;;;23.80;77.30;;;;;;5112573;28;19959;-72
2023/06/24 10:50:45;;;;;;;;;;;23.90;77.20;;;;;;5106925;27;19946;-72
2023/06/24 10:53:12;;;;;;;;;;;23.90;77.00;;;;;;5111850;28;20062;-72
2023/06/24 10:55:37;;;;;;;;;;;24.00;77.30;;;;;;5112024;27;19934;-72
2023/06/24 10:58:09;;;;;;;;;;;24.20;77.30;;;;;;5112285;28;20246;-72
2023/06/24 11:00:35;;;;;;;;;;;24.20;77.50;;;;;;5110597;28;19912;-72
2023/06/24 11:03:16;;;;;;;;;;;24.30;77.40;;;;;;5112009;28;19938;-72
2023/06/24 11:05:43;;;;;;;;;;;24.50;77.40;;;;;;5111555;28;19919;-72
2023/06/24 11:08:09;;;;;;;;;;;24.60;77.20;;;;;;5110368;28;20010;-73
2023/06/24 11:10:42;;;;;;;;;;;24.60;77.50;;;;;;5110768;28;19918;-72
2023/06/24 11:13:07;;;;;;;;;;;24.70;77.40;;;;;;5111935;28;19957;-72
2023/06/24 11:15:33;;;;;;;;;;;24.80;77.00;;;;;;5111605;28;20314;-72
2023/06/24 11:18:01;;;;;;;;;;;25.00;77.10;;;;;;5111479;28;19916;-73
2023/06/24 11:20:27;;;;;;;;;;;25.00;77.10;;;;;;5111612;28;20308;-73
2023/06/24 11:22:53;;;;;;;;;;;25.10;77.10;;;;;;5111787;28;19945;-72
2023/06/24 11:25:19;;;;;;;;;;;25.20;77.00;;;;;;5111857;28;20003;-73
2023/06/24 11:27:44;;;;;;;;;;;25.30;77.40;;;;;;5111613;28;20006;-73
2023/06/24 11:30:10;;;;;;;;;;;25.40;77.20;;;;;;5110351;28;20447;-73
2023/06/24 11:32:39;;;;;;;;;;;25.40;77.40;;;;;;5111462;28;20669;-73
2023/06/24 11:35:06;;;;;;;;;;;25.50;77.20;;;;;;5110081;28;19911;-73
2023/06/24 11:37:33;;;;;;;;;;;25.60;77.30;;;;;;5110359;28;19915;-73
2023/06/24 11:40:05;;;;;;;;;;;25.70;76.80;;;;;;5109779;28;19912;-73
2023/06/24 11:42:35;;;;;;;;;;;25.80;76.70;;;;;;5110925;28;20540;-73
2023/06/24 11:45:04;;;;;;;;;;;25.90;76.60;;;;;;5109610;27;19920;-72
2023/06/24 11:47:37;;;;;;;;;;;25.90;77.20;;;;;;5104032;27;19942;-72
2023/06/24 11:50:04;;;;;;;;;;;26.00;76.50;;;;;;5106566;28;19919;-72
2023/06/24 11:52:32;;;;;;;;;;;26.00;76.10;;;;;;5109723;28;20648;-72
2023/06/24 11:54:58;;;;;;;;;;;26.10;76.60;;;;;;5113626;27;19933;-73
2023/06/24 11:57:43;;;;;;;;;;;26.10;77.10;;;;;;5131056;27;20458;-73
2023/06/24 12:00:12;;;;;;;;;;;26.20;76.50;;;;;;5131234;27;19941;-73
2023/06/24 12:02:38;;;;;;;;;;;26.20;76.80;;;;;;5119426;27;19999;-73
2023/06/24 12:05:04;;;;;;;;;;;26.20;76.50;;;;;;5096982;28;20060;-73
2023/06/24 12:07:29;;;;;;;;;;;26.40;74.90;;;;;;5092106;28;19923;-73
2023/06/24 12:09:55;;;;;;;;;;;26.40;76.50;;;;;;5090366;28;19919;-73
2023/06/24 12:12:20;;;;;;;;;;;26.50;76.40;;;;;;5094909;28;19912;-73
2023/06/24 12:14:46;;;;;;;;;;;26.50;76.10;;;;;;5110511;28;20034;-73
2023/06/24 12:17:11;;;;;;;;;;;26.60;75.30;;;;;;5110144;28;19923;-73
2023/06/24 12:19:37;;;;;;;;;;;26.60;75.90;;;;;;5110226;28;19934;-72
2023/06/24 12:22:02;;;;;;;;;;;26.60;75.60;;;;;;5110256;28;19919;-73
2023/06/24 12:24:28;;;;;;;;;;;26.80;75.40;;;;;;5110431;28;19923;-73
2023/06/24 12:26:53;;;;;;;;;;;26.80;76.20;;;;;;5110059;28;19942;-73
2023/06/24 12:29:19;;;;;;;;;;;26.80;75.70;;;;;;5110080;28;20006;-73
2023/06/24 12:31:44;;;;;;;;;;;26.90;75.40;;;;;;5110093;28;19912;-74
2023/06/24 12:34:10;;;;;;;;;;;27.00;76.10;;;;;;5109852;28;19912;-73
2023/06/24 12:36:35;;;;;;;;;;;27.00;75.90;;;;;;5109731;27;19911;-73
2023/06/24 12:39:01;;;;;;;;;;;27.00;75.90;;;;;;5110070;28;20672;-72
2023/06/24 12:41:28;;;;;;;;;;;27.10;75.90;;;;;;5110043;28;19919;-72
2023/06/24 12:43:53;;;;;;;;;;;27.20;75.60;;;;;;5109216;28;20303;-72
2023/06/24 12:46:18;;;;;;;;;;;27.30;76.00;;;;;;5109743;28;19916;-73
2023/06/24 12:48:44;;;;;;;;;;;27.30;75.70;;;;;;5109579;28;19911;-73
2023/06/24 12:51:09;;;;;;;;;;;27.30;75.20;;;;;;5109565;28;19914;-72
2023/06/24 12:53:35;;;;;;;;;;;27.40;75.50;;;;;;5110015;28;20353;-72
2023/06/24 12:56:00;;;;;;;;;;;27.40;75.50;;;;;;5109499;27;19908;-72
2023/06/24 12:58:26;;;;;;;;;;;27.50;75.30;;;;;;5104070;28;19992;-72
2023/06/24 13:00:52;;;;;;;;;;;27.60;75.20;;;;;;5099688;28;20483;-71
2023/06/24 13:03:18;;;;;;;;;;;27.60;75.20;;;;;;5090670;28;19916;-70
2023/06/24 13:05:43;;;;;;;;;;;27.70;74.70;;;;;;5102903;28;19964;-69
2023/06/24 13:08:10;;;;;;;;;;;27.70;74.90;;;;;;5107780;27;20049;-71
2023/06/24 13:10:36;;;;;;;;;;;27.70;75.00;;;;;;5100598;28;20096;-69
2023/06/24 13:13:02;;;;;;;;;;;27.80;74.90;;;;;;5102545;28;19915;-71
2023/06/24 13:15:28;;;;;;;;;;;27.80;74.70;;;;;;5107160;28;19918;-69
2023/06/24 13:17:53;;;;;;;;;;;27.90;74.20;;;;;;5098215;28;19985;-68
2023/06/24 13:20:19;;;;;;;;;;;27.90;74.60;;;;;;5098908;28;19920;-69
2023/06/24 13:22:44;;;;;;;;;;;28.00;73.50;;;;;;5104526;28;19973;-70
2023/06/24 13:25:10;;;;;;;;;;;28.00;73.30;;;;;;5105861;28;19926;-70
2023/06/24 13:27:37;;;;;;;;;;;28.00;72.90;;;;;;5100119;28;20146;-68
2023/06/24 13:30:04;;;;;;;;;;;28.20;72.80;;;;;;5104955;28;19954;-68
2023/06/24 13:32:29;;;;;;;;;;;28.20;71.60;;;;;;5102274;28;19919;-70
2023/06/24 13:34:55;;;;;;;;;;;28.20;71.60;;;;;;5108971;28;19914;-67
2023/06/24 13:37:20;;;;;;;;;;;28.20;72.50;;;;;;5106049;28;19915;-68
2023/06/24 13:39:47;;;;;;;;;;;28.30;73.30;;;;;;5107454;27;19994;-68
2023/06/24 13:42:13;;;;;;;;;;;28.30;72.40;;;;;;5115789;27;19928;-67
2023/06/24 13:44:38;;;;;;;;;;;28.40;70.90;;;;;;5108305;28;19911;-68
2023/06/24 13:47:04;;;;;;;;;;;28.40;70.20;;;;;;5103216;27;19927;-68
2023/06/24 13:49:29;;;;;;;;;;;28.50;73.00;;;;;;5101109;28;19959;-68
2023/06/24 13:51:55;;;;;;;;;;;28.50;72.60;;;;;;5109673;28;19911;-68
2023/06/24 13:54:20;;;;;;;;;;;28.50;72.80;;;;;;5118971;27;19918;-69
2023/06/24 13:56:46;;;;;;;;;;;28.50;72.20;;;;;;5140894;27;19919;-68
2023/06/24 13:59:11;;;;;;;;;;;28.60;72.40;;;;;;5114367;27;20371;-67
2023/06/24 14:01:37;;;;;;;;;;;28.60;71.90;;;;;;5117286;27;19915;-68
2023/06/24 14:04:03;;;;;;;;;;;28.60;71.50;;;;;;5108602;28;19915;-70
2023/06/24 14:06:28;;;;;;;;;;;28.70;70.90;;;;;;5110032;28;19919;-69
2023/06/24 14:08:54;;;;;;;;;;;28.70;70.30;;;;;;5153928;27;20292;-69
2023/06/24 14:11:19;;;;;;;;;;;28.70;71.70;;;;;;5129501;27;19912;-69